Time;durP1;ratioP1;P1;durP2;ratioP2;P2;SDS_P1;SDS_P2;PMS_P1;PMS_P2;Temp;Humidity;BMP_temperature;BMP_pressure;BME280_temperature;BME280_humidity;BME280_pressure;Samples;Min_cycle;Max_cycle;Signal;HPM_P1;HPM_P2
2021/11/06 00:01:15;;;;;;;25.02;11.15;;;;;;;12.92;73.20;99261.34;5053302;28;20040;-85
2021/11/06 00:03:41;;;;;;;25.23;11.95;;;;;;;13.00;73.48;99263.22;5052605;28;20140;-84
2021/11/06 00:06:08;;;;;;;28.88;11.20;;;;;;;12.97;73.53;99266.63;5052765;28;20513;-87
2021/11/06 00:08:34;;;;;;;27.40;10.98;;;;;;;12.99;73.69;99269.06;5053589;28;20486;-88
2021/11/06 00:11:01;;;;;;;;;;;;;;;13.03;73.86;99275.50;5053952;28;20053;-85
2021/11/06 00:13:27;;;;;;;30.20;11.13;;;;;;;12.91;74.33;99263.28;5053162;28;20024;-84
2021/11/06 00:15:53;;;;;;;26.77;12.35;;;;;;;13.01;74.34;99284.03;5053684;28;20072;-84
2021/11/06 00:18:19;;;;;;;26.23;11.80;;;;;;;12.97;74.37;99261.16;5052496;28;20406;-85
2021/11/06 00:20:46;;;;;;;30.90;11.75;;;;;;;13.04;74.50;99277.09;5053875;28;20068;-88
2021/11/06 00:23:12;;;;;;;31.95;12.80;;;;;;;12.94;74.55;99268.09;5052662;28;20043;-83
2021/11/06 00:25:39;;;;;;;32.25;12.52;;;;;;;13.01;74.85;99281.28;5053121;28;20123;-87
2021/11/06 00:28:05;;;;;;;30.67;12.80;;;;;;;12.99;74.91;99274.53;5053521;28;20066;-86
2021/11/06 00:30:32;;;;;;;30.60;13.27;;;;;;;12.94;74.91;99276.31;5052119;28;20049;-86
2021/11/06 00:32:59;;;;;;;29.17;13.03;;;;;;;13.02;74.92;99265.66;5053178;28;20040;-86
2021/11/06 00:35:25;;;;;;;30.52;12.77;;;;;;;13.03;74.71;99268.06;5053100;28;20311;-87
2021/11/06 00:37:51;;;;;;;33.75;13.73;;;;;;;13.02;74.79;99266.47;5052802;28;20124;-84
2021/11/06 00:40:17;;;;;;;31.77;14.45;;;;;;;13.05;74.90;99252.06;5053187;28;20041;-88
2021/11/06 00:42:45;;;;;;;34.67;14.73;;;;;;;13.02;74.49;99258.22;5052979;28;20136;-86
2021/11/06 00:45:12;;;;;;;35.67;13.73;;;;;;;12.93;74.64;99250.03;5051944;28;20037;-87
2021/11/06 00:47:39;;;;;;;32.80;13.82;;;;;;;12.95;74.71;99255.19;5053361;28;20041;-82
2021/11/06 00:50:15;;;;;;;32.05;14.02;;;;;;;12.89;74.72;99240.06;5051939;28;20597;-87
2021/11/06 00:52:46;;;;;;;33.77;14.00;;;;;;;12.81;74.88;99260.09;5050601;28;20147;-86
2021/11/06 00:55:13;;;;;;;33.15;13.60;;;;;;;12.91;74.97;99257.81;5052214;28;20040;-87
2021/11/06 00:57:39;;;;;;;;;;;;;;;12.93;74.56;99247.28;5062031;28;20041;-87
2021/11/06 01:00:09;;;;;;;32.00;13.93;;;;;;;12.78;74.64;99253.34;5052896;28;19924;-86
2021/11/06 01:02:37;;;;;;;32.50;14.10;;;;;;;12.85;74.66;99264.59;5052844;28;20319;-87
2021/11/06 01:05:05;;;;;;;31.27;13.65;;;;;;;12.76;74.49;99272.06;5052097;28;20075;-83
2021/11/06 01:07:31;;;;;;;36.40;15.38;;;;;;;12.62;74.55;99244.84;5052610;28;20056;-87
2021/11/06 01:09:57;;;;;;;32.92;13.35;;;;;;;12.64;74.21;99247.25;5052964;28;20062;-86
2021/11/06 01:12:23;;;;;;;34.20;14.10;;;;;;;12.62;74.13;99250.31;5051147;28;20051;-81
2021/11/06 01:14:49;;;;;;;42.47;15.40;;;;;;;12.66;73.66;99251.28;5052532;28;20291;-86
2021/11/06 01:17:15;;;;;;;39.88;14.48;;;;;;;12.62;73.39;99249.53;5052599;28;20059;-86
2021/11/06 01:19:42;;;;;;;32.97;14.85;;;;;;;12.52;73.30;99226.00;5051394;28;20409;-88
2021/11/06 01:22:09;;;;;;;38.63;15.63;;;;;;;12.51;72.99;99237.28;5052079;28;20049;-86
2021/11/06 01:24:35;;;;;;;35.10;14.70;;;;;;;12.52;72.62;99250.69;5050342;28;20422;-86
2021/11/06 01:27:02;;;;;;;;;;;;;;;12.51;72.05;99259.22;5051267;28;20037;-88
2021/11/06 01:29:28;;;;;;;33.10;14.98;;;;;;;12.45;71.91;99245.72;5050933;28;19924;-87
2021/11/06 01:31:56;;;;;;;32.10;14.77;;;;;;;12.30;71.40;99243.47;5052180;28;20041;-88
2021/11/06 01:34:22;;;;;;;32.25;13.73;;;;;;;12.35;71.27;99250.72;5051929;28;20033;-87
2021/11/06 01:36:49;;;;;;;35.10;14.35;;;;;;;12.36;71.04;99257.81;5052155;28;20497;-87
2021/11/06 01:39:15;;;;;;;37.25;14.48;;;;;;;12.32;70.89;99251.38;5052368;28;20041;-87
2021/11/06 01:41:43;;;;;;;38.78;15.65;;;;;;;12.31;71.10;99241.53;5050486;28;20510;-88
2021/11/06 01:44:10;;;;;;;35.00;14.27;;;;;;;12.28;71.19;99259.44;5051734;28;20041;-83
2021/11/06 01:46:37;;;;;;;30.00;13.85;;;;;;;12.23;71.18;99254.13;5051652;28;20043;-88
2021/11/06 01:49:03;;;;;;;35.97;15.10;;;;;;;12.19;71.46;99250.44;5052248;28;20120;-84
2021/11/06 01:51:29;;;;;;;36.97;16.10;;;;;;;12.07;71.24;99245.59;5051847;28;20498;-87
2021/11/06 01:53:55;;;;;;;39.35;15.80;;;;;;;11.99;71.44;99244.50;5047860;28;20037;-83
2021/11/06 01:56:23;;;;;;;37.30;14.77;;;;;;;12.07;71.49;99247.53;5051315;28;20037;-88
2021/11/06 01:58:50;;;;;;;34.22;15.05;;;;;;;12.02;71.52;99250.44;5051984;28;20056;-88
2021/11/06 02:01:16;;;;;;;38.55;16.10;;;;;;;11.94;71.41;99241.13;5051778;28;20048;-87
2021/11/06 02:03:43;;;;;;;40.35;15.75;;;;;;;11.92;71.66;99244.19;5051847;28;20037;-88
2021/11/06 02:06:11;;;;;;;34.92;15.55;;;;;;;11.88;71.92;99245.13;5051591;28;20043;-87
2021/11/06 02:08:37;;;;;;;42.30;16.05;;;;;;;11.82;71.70;99249.97;5051136;28;20045;-86
2021/11/06 02:11:05;;;;;;;36.67;15.82;;;;;;;11.81;71.53;99253.81;5051737;28;20429;-88
2021/11/06 02:13:32;;;;;;;38.35;15.98;;;;;;;11.73;71.53;99257.38;5051879;28;20068;-88
2021/11/06 02:15:58;;;;;;;33.80;15.80;;;;;;;11.70;71.84;99256.06;5050568;28;20055;-88
2021/11/06 02:18:24;;;;;;;38.13;16.47;;;;;;;11.65;71.80;99252.69;5051576;28;20061;-87
2021/11/06 02:21:06;;;;;;;40.63;16.00;;;;;;;11.64;71.50;99249.13;5051786;28;20072;-88
2021/11/06 02:23:38;;;;;;;38.20;15.05;;;;;;;11.59;71.59;99256.69;5049942;28;20174;-86
2021/11/06 02:26:09;;;;;;;37.25;15.43;;;;;;;11.52;71.55;99244.31;5050539;28;20069;-86
2021/11/06 02:28:35;;;;;;;41.72;16.02;;;;;;;11.57;71.49;99253.50;5050172;28;20068;-82
2021/11/06 02:31:02;;;;;;;40.88;15.63;;;;;;;11.46;71.42;99248.34;5050100;28;20517;-86
2021/11/06 02:33:28;;;;;;;39.42;14.98;;;;;;;11.52;71.55;99246.22;5050040;28;20041;-87
2021/11/06 02:35:59;;;;;;;39.65;15.13;;;;;;;11.45;71.38;99251.38;5051084;28;20039;-87
2021/11/06 02:38:25;;;;;;;43.83;15.93;;;;;;;11.47;71.21;99252.66;5051111;28;20056;-86
2021/11/06 02:40:51;;;;;;;44.97;16.87;;;;;;;11.37;71.46;99230.28;5049996;28;20391;-88
2021/11/06 02:43:18;;;;;;;38.58;16.42;;;;;;;11.42;71.38;99228.22;5050001;28;20063;-88
2021/11/06 02:45:44;;;;;;;38.17;15.35;;;;;;;11.36;71.40;99232.22;5050141;28;20040;-87
2021/11/06 02:48:10;;;;;;;47.40;16.73;;;;;;;11.38;71.60;99234.63;5050938;28;20128;-83
2021/11/06 02:50:38;;;;;;;37.33;15.68;;;;;;;11.32;71.87;99231.22;5030203;28;20479;-88
2021/11/06 02:53:05;;;;;;;36.27;16.27;;;;;;;11.36;71.25;99245.91;5039718;28;20057;-85
2021/11/06 02:55:31;;;;;;;38.55;16.38;;;;;;;11.35;71.69;99247.00;5049152;28;20040;-87
2021/11/06 02:57:57;;;;;;;35.37;16.30;;;;;;;11.28;71.56;99244.75;5051274;28;20098;-87
2021/11/06 03:00:27;;;;;;;38.38;16.05;;;;;;;11.34;71.54;99256.34;5049401;28;20366;-86
2021/11/06 03:02:56;;;;;;;38.83;15.82;;;;;;;11.32;71.29;99249.59;5050755;28;20041;-84
2021/11/06 03:05:22;;;;;;;39.85;16.10;;;;;;;11.33;70.85;99238.34;5049540;28;20041;-86
2021/11/06 03:07:49;;;;;;;39.90;16.73;;;;;;;11.34;71.15;99256.34;5051321;28;20120;-87
2021/11/06 03:10:15;;;;;;;41.92;16.17;;;;;;;11.33;71.21;99262.16;5050600;28;20524;-84
2021/11/06 03:12:44;;;;;;;41.63;16.67;;;;;;;11.38;70.51;99262.00;5050753;28;20060;-82
2021/11/06 03:15:11;;;;;;;39.10;14.80;;;;;;;11.30;70.29;99269.06;5051091;28;20041;-86
2021/11/06 03:17:37;;;;;;;30.40;12.97;;;;;;;11.14;69.68;99263.22;5050581;28;20067;-86
2021/11/06 03:20:05;;;;;;;30.23;13.32;;;;;;;11.11;69.32;99263.06;5050952;28;20044;-88
2021/11/06 03:22:32;;;;;;;34.97;12.50;;;;;;;11.04;68.79;99253.38;5050435;28;20140;-86
2021/11/06 03:25:02;;;;;;;26.48;10.75;;;;;;;10.93;68.57;99249.34;5050542;28;20041;-87
2021/11/06 03:27:29;;;;;;;28.63;12.40;;;;;;;10.83;68.92;99246.91;5051794;28;20048;-87
2021/11/06 03:29:55;;;;;;;20.35;10.70;;;;;;;10.78;68.20;99245.09;5054464;28;20513;-85
2021/11/06 03:32:21;;;;;;;31.10;11.32;;;;;;;10.83;67.75;99263.31;5054166;28;20090;-85
2021/11/06 03:34:49;;;;;;;25.95;10.82;;;;;;;10.87;67.53;99260.75;5053062;28;20405;-87
2021/11/06 03:37:15;;;;;;;24.83;10.00;;;;;;;10.80;66.95;99258.47;5054452;28;20052;-86
2021/11/06 03:39:42;;;;;;;;;;;;;;;10.74;65.43;99252.31;5055043;28;20068;-88
2021/11/06 03:42:08;;;;;;;18.43;7.83;;;;;;;10.49;63.16;99233.88;5054260;28;20411;-87
2021/11/06 03:44:57;;;;;;;23.27;8.00;;;;;;;10.48;62.75;99254.13;5054398;28;20041;-84
2021/11/06 03:47:25;;;;;;;11.85;6.00;;;;;;;10.43;61.16;99254.25;5032098;28;20061;-85
2021/11/06 03:49:51;;;;;;;17.93;7.30;;;;;;;10.24;61.57;99249.78;5031947;28;20056;-87
2021/11/06 03:52:18;;;;;;;13.55;6.47;;;;;;;10.23;60.99;99259.13;5014892;28;20049;-87
2021/11/06 03:54:44;;;;;;;16.60;7.05;;;;;;;10.14;61.98;99254.72;5031667;28;20045;-80
2021/11/06 03:57:10;;;;;;;13.00;6.47;;;;;;;10.09;61.31;99255.63;5031570;28;20052;-85
2021/11/06 03:59:36;;;;;;;12.85;7.32;;;;;;;10.06;62.20;99248.84;5031741;28;20049;-84
2021/11/06 04:02:03;;;;;;;21.83;9.13;;;;;;;9.86;61.53;99233.78;5031723;28;20041;-80
2021/11/06 04:04:29;;;;;;;22.17;9.50;;;;;;;9.88;61.85;99234.28;5030558;28;20111;-87
2021/11/06 04:06:55;;;;;;;17.45;8.50;;;;;;;9.88;62.22;99255.31;5031766;28;20604;-85
2021/11/06 04:09:21;;;;;;;14.25;8.30;;;;;;;9.85;62.53;99254.00;5031502;28;20025;-83
2021/11/06 04:11:48;;;;;;;14.98;8.45;;;;;;;9.76;62.65;99255.06;5015061;28;20045;-86
2021/11/06 04:14:13;;;;;;;16.23;8.38;;;;;;;9.69;63.16;99251.94;5031380;28;20119;-87
2021/11/06 04:16:40;;;;;;;22.38;9.40;;;;;;;9.66;62.79;99269.75;5031253;28;20045;-85
2021/11/06 04:19:06;;;;;;;21.25;8.77;;;;;;;9.67;63.13;99262.34;5007665;28;20057;-85
2021/11/06 04:21:33;;;;;;;20.02;8.77;;;;;;;9.62;62.68;99258.63;5033774;28;20124;-86
2021/11/06 04:23:59;;;;;;;17.80;8.90;;;;;;;9.56;64.02;99237.22;5051418;28;20037;-84
2021/11/06 04:26:26;;;;;;;17.50;10.00;;;;;;;9.53;63.56;99246.03;5052927;28;20033;-86
2021/11/06 04:28:52;;;;;;;14.45;8.30;;;;;;;9.58;63.64;99256.84;5053662;28;20133;-86
2021/11/06 04:31:21;;;;;;;14.60;6.97;;;;;;;9.50;63.83;99250.16;5053393;28;20041;-86
2021/11/06 04:33:50;;;;;;;14.65;8.10;;;;;;;9.58;64.07;99260.38;5053039;28;20132;-85
2021/11/06 04:36:19;;;;;;;12.10;7.15;;;;;;;9.52;63.71;99250.69;5053347;28;20063;-86
2021/11/06 04:38:45;;;;;;;14.35;7.68;;;;;;;9.47;64.10;99231.72;5052247;28;20139;-86
2021/11/06 04:41:11;;;;;;;12.20;7.03;;;;;;;9.52;64.17;99247.97;5053435;28;20048;-87
2021/11/06 04:43:38;;;;;;;18.52;6.97;;;;;;;9.49;63.62;99253.22;5052906;28;20049;-87
2021/11/06 04:46:05;;;;;;;13.95;7.30;;;;;;;9.42;64.04;99250.91;5052767;28;20040;-87
2021/11/06 04:48:31;;;;;;;;;;;;;;;9.48;63.89;99268.78;5053731;28;20033;-86
2021/11/06 04:50:58;;;;;;;;;;;;;;;9.49;64.29;99258.69;5053199;28;19928;-85
2021/11/06 04:53:23;;;;;;;13.33;7.57;;;;;;;9.38;64.53;99260.84;5052312;28;19920;-85
2021/11/06 04:55:50;;;;;;;14.77;7.50;;;;;;;9.28;64.47;99258.31;5052347;28;20132;-87
2021/11/06 04:58:17;;;;;;;14.88;7.55;;;;;;;9.17;65.31;99236.72;5052357;28;20115;-84
2021/11/06 05:00:43;;;;;;;13.57;7.30;;;;;;;9.08;65.06;99235.81;5052526;28;20067;-80
2021/11/06 05:03:13;;;;;;;13.75;7.45;;;;;;;9.19;65.30;99260.97;5042330;28;20068;-84
2021/11/06 05:05:41;;;;;;;15.52;8.20;;;;;;;9.22;65.68;99251.38;5034480;28;20068;-84
2021/11/06 05:08:07;;;;;;;15.05;9.32;;;;;;;9.25;64.97;99245.31;5030689;28;20041;-85
2021/11/06 05:10:34;;;;;;;15.95;9.82;;;;;;;9.10;65.41;99235.50;5043984;28;20048;-82
2021/11/06 05:13:00;;;;;;;15.35;9.32;;;;;;;9.21;65.46;99238.84;5050496;28;20418;-83
2021/11/06 05:15:26;;;;;;;14.05;8.35;;;;;;;9.06;64.81;99224.41;5016805;28;20037;-86
2021/11/06 05:17:54;;;;;;;15.75;9.57;;;;;;;9.15;65.49;99232.69;5031230;28;20037;-86
2021/11/06 05:20:21;;;;;;;16.48;8.30;;;;;;;9.09;64.72;99215.63;5023999;28;20032;-84
2021/11/06 05:22:47;;;;;;;20.23;9.73;;;;;;;9.26;65.31;99246.91;5017576;28;20032;-82
2021/11/06 05:25:15;;;;;;;14.57;8.23;;;;;;;9.14;64.89;99229.16;5052197;28;20489;-82
2021/11/06 05:27:41;;;;;;;16.75;9.75;;;;;;;9.22;65.12;99251.38;5051593;28;20413;-84
2021/11/06 05:30:09;;;;;;;18.17;8.00;;;;;;;9.05;65.52;99224.72;5041845;28;20033;-83
2021/11/06 05:32:36;;;;;;;15.43;8.00;;;;;;;9.17;65.20;99244.06;5041097;28;20327;-81
2021/11/06 05:35:07;;;;;;;21.58;7.93;;;;;;;9.16;65.30;99220.66;5038666;28;20037;-86
2021/11/06 05:37:33;;;;;;;20.33;8.05;;;;;;;9.18;65.40;99219.25;5031933;28;20045;-81
2021/11/06 05:39:59;;;;;;;19.35;8.13;;;;;;;9.13;65.56;99222.06;5037493;28;20505;-84
2021/11/06 05:42:25;;;;;;;21.27;8.73;;;;;;;9.17;65.33;99225.81;5042155;28;20048;-81
2021/11/06 05:44:52;;;;;;;15.35;7.97;;;;;;;9.14;65.49;99236.53;5049553;28;20041;-81
2021/11/06 05:47:18;;;;;;;20.00;8.15;;;;;;;9.13;65.54;99235.69;5033172;28;20050;-80
2021/11/06 05:49:44;;;;;;;15.63;7.50;;;;;;;9.15;65.51;99229.97;5034980;28;20071;-84
2021/11/06 05:52:10;;;;;;;22.42;7.55;;;;;;;9.12;65.69;99225.13;5038878;28;20076;-83
2021/11/06 05:54:36;;;;;;;14.82;7.32;;;;;;;9.03;65.59;99197.75;5042427;28;20045;-81
2021/11/06 05:57:02;;;;;;;13.68;7.80;;;;;;;9.20;65.13;99220.84;5040550;28;20098;-85
2021/11/06 05:59:28;;;;;;;18.95;8.45;;;;;;;9.18;65.50;99216.53;5045484;28;20040;-85
2021/11/06 06:01:54;;;;;;;14.00;9.32;;;;;;;9.20;65.72;99220.84;5038806;28;20037;-83
2021/11/06 06:04:21;;;;;;;15.27;8.57;;;;;;;9.17;65.27;99225.81;5047745;28;20048;-80
2021/11/06 06:06:47;;;;;;;16.15;9.90;;;;;;;9.20;65.42;99240.75;5049382;28;20090;-80
2021/11/06 06:09:15;;;;;;;25.90;8.90;;;;;;;9.17;65.12;99253.09;5049523;28;20041;-81
2021/11/06 06:11:41;;;;;;;14.73;7.25;;;;;;;9.20;65.26;99254.38;5049392;28;20383;-85
2021/11/06 06:14:07;;;;;;;15.63;7.82;;;;;;;9.25;65.30;99258.94;5049436;28;20056;-85
2021/11/06 06:16:33;;;;;;;13.68;7.15;;;;;;;9.27;64.83;99268.44;5048623;28;20052;-84
2021/11/06 06:19:01;;;;;;;15.00;7.78;;;;;;;9.30;64.89;99273.25;5049644;28;20502;-83
2021/11/06 06:21:27;;;;;;;14.75;7.30;;;;;;;9.26;64.94;99260.53;5049335;28;20049;-81
2021/11/06 06:23:54;;;;;;;14.02;7.78;;;;;;;9.32;64.73;99237.50;5048378;28;20043;-85
2021/11/06 06:26:27;;;;;;;17.98;7.75;;;;;;;9.32;64.42;99226.59;5047278;28;20049;-87
2021/11/06 06:29:30;;;;;;;19.75;8.43;;;;;;;9.01;64.55;99194.53;5049136;28;20037;-80
2021/11/06 06:32:12;;;;;;;17.00;8.40;;;;;;;9.29;64.79;99211.63;5048047;28;20041;-74
2021/11/06 06:34:38;;;;;;;19.47;8.27;;;;;;;9.33;64.67;99212.63;5049111;28;20045;-82
2021/11/06 06:37:04;;;;;;;19.58;8.95;;;;;;;9.33;64.86;99207.16;5049276;28;20288;-83
2021/11/06 06:39:31;;;;;;;18.00;10.02;;;;;;;9.33;64.89;99203.66;5049136;28;20430;-83
2021/11/06 06:41:57;;;;;;;17.05;9.35;;;;;;;9.30;64.82;99198.81;5049076;28;20059;-76
2021/11/06 06:44:23;;;;;;;22.58;9.93;;;;;;;9.30;65.26;99201.53;5049404;28;20040;-84
2021/11/06 06:46:49;;;;;;;21.45;9.70;;;;;;;9.30;64.28;99204.25;5038677;28;20084;-85
2021/11/06 06:49:15;;;;;;;14.63;8.00;;;;;;;9.23;64.71;99198.41;5048212;28;20041;-78
2021/11/06 06:51:42;;;;;;;19.33;9.10;;;;;;;9.37;64.36;99210.09;5049209;28;20144;-81
2021/11/06 06:54:08;;;;;;;20.13;9.48;;;;;;;9.34;64.53;99213.47;5040084;28;20040;-78
2021/11/06 06:56:34;;;;;;;23.70;9.05;;;;;;;9.25;64.66;99218.03;5033372;28;20518;-84
2021/11/06 06:59:01;;;;;;;17.95;8.60;;;;;;;9.29;64.74;99216.28;5030350;28;20399;-75
2021/11/06 07:01:28;;;;;;;19.67;8.38;;;;;;;9.30;64.80;99231.53;5031165;28;20034;-76
2021/11/06 07:03:54;;;;;;;23.98;9.32;;;;;;;9.21;64.92;99217.84;5034791;28;20037;-86
2021/11/06 07:06:20;;;;;;;15.50;8.45;;;;;;;9.16;64.57;99242.47;5040210;28;20048;-81
2021/11/06 07:08:47;;;;;;;16.17;9.00;;;;;;;9.20;65.01;99254.38;5044642;28;20053;-85
2021/11/06 07:11:13;;;;;;;23.08;9.63;;;;;;;9.11;64.81;99218.06;5033217;28;20046;-81
2021/11/06 07:13:39;;;;;;;26.73;10.43;;;;;;;9.10;64.68;99221.88;5034225;28;20033;-87
2021/11/06 07:16:06;;;;;;;17.50;9.75;;;;;;;9.26;65.12;99255.09;5038178;28;20037;-85
2021/11/06 07:18:34;;;;;;;16.23;9.65;;;;;;;9.26;65.19;99246.91;5032206;28;20037;-83
2021/11/06 07:21:00;;;;;;;18.33;8.63;;;;;;;9.25;64.86;99235.19;5032710;28;20041;-83
2021/11/06 07:23:26;;;;;;;20.73;10.52;;;;;;;9.30;65.18;99245.97;5034030;28;20038;-86
2021/11/06 07:26:00;;;;;;;19.30;10.73;;;;;;;9.28;65.16;99242.75;5033878;28;20052;-83
2021/11/06 07:28:28;;;;;;;20.08;9.93;;;;;;;9.30;65.26;99232.34;5042021;28;20467;-85
2021/11/06 07:30:53;;;;;;;;;;;;;;;9.31;64.92;99236.69;5036025;28;20124;-82
2021/11/06 07:33:20;;;;;;;17.77;7.88;;;;;;;9.27;65.06;99224.78;5035228;28;19921;-85
2021/11/06 07:35:46;;;;;;;18.20;8.77;;;;;;;9.39;64.89;99232.44;5039152;28;20044;-88
2021/11/06 07:38:13;;;;;;;18.90;7.80;;;;;;;9.33;65.19;99214.56;5035152;28;20039;-87
2021/11/06 07:40:43;;;;;;;14.88;8.05;;;;;;;9.39;64.78;99222.31;5052102;28;20033;-84
2021/11/06 07:43:09;;;;;;;17.83;7.85;;;;;;;9.48;64.74;99248.88;5050940;28;20209;-86
2021/11/06 07:45:35;;;;;;;19.40;11.88;;;;;;;9.48;65.72;99243.44;5049923;28;20239;-80
2021/11/06 07:48:01;;;;;;;15.25;9.38;;;;;;;9.74;66.32;99241.72;5033528;28;20079;-79
2021/11/06 07:50:27;;;;;;;22.70;7.75;;;;;;;9.97;64.42;99242.56;5033670;28;20048;-84
2021/11/06 07:52:54;;;;;;;17.52;9.00;;;;;;;9.97;62.95;99242.56;5033012;28;20144;-80
2021/11/06 07:55:20;;;;;;;19.27;9.60;;;;;;;9.84;63.67;99236.03;5038541;28;20079;-92
2021/11/06 07:57:46;;;;;;;19.35;10.73;;;;;;;9.80;64.24;99226.00;5055258;28;20037;-90
2021/11/06 08:00:16;;;;;;;15.77;8.18;;;;;;;9.61;63.85;99224.28;5055234;28;20068;-91
2021/11/06 08:02:42;;;;;;;15.55;8.15;;;;;;;9.52;63.97;99223.41;5055506;28;20064;-90
2021/11/06 08:05:11;;;;;;;26.23;10.10;;;;;;;9.52;64.29;99219.88;5056507;28;20032;-87
2021/11/06 08:07:40;;;;;;;19.55;10.38;;;;;;;9.56;64.68;99210.75;5055239;28;20052;-82
2021/11/06 08:10:07;;;;;;;19.83;8.68;;;;;;;9.61;64.29;99213.38;5056513;28;20045;-90
2021/11/06 08:12:39;;;;;;;19.48;9.25;;;;;;;9.64;64.37;99212.75;5055122;28;20440;-89
2021/11/06 08:15:08;;;;;;;26.15;12.90;;;;;;;9.70;64.62;99220.81;5048111;28;20052;-88
2021/11/06 08:17:34;;;;;;;14.88;7.63;;;;;;;9.76;63.73;99219.56;5048331;28;20127;-90
2021/11/06 08:20:00;;;;;;;19.13;8.20;;;;;;;9.75;63.97;99223.44;5048907;28;20113;-79
2021/11/06 08:22:26;;;;;;;17.67;8.55;;;;;;;9.63;64.06;99202.97;5053700;28;20061;-91
2021/11/06 08:24:52;;;;;;;19.70;9.75;;;;;;;9.64;64.45;99204.56;5053665;28;20040;-93
2021/11/06 08:27:18;;;;;;;22.33;10.55;;;;;;;9.62;63.96;99203.25;5050479;28;20033;-89
2021/11/06 08:29:46;;;;;;;56.20;21.40;;;;;;;9.61;64.41;99209.84;5040640;28;20052;-86
2021/11/06 08:32:12;;;;;;;74.63;27.47;;;;;;;9.55;64.38;99198.22;5050889;28;20045;-91
2021/11/06 08:34:38;;;;;;;52.42;20.27;;;;;;;9.55;64.75;99209.13;5053534;28;20044;-93
2021/11/06 08:37:05;;;;;;;45.45;22.27;;;;;;;9.62;65.01;99205.97;5041047;28;20128;-84
2021/11/06 08:39:33;;;;;;;35.65;16.35;;;;;;;9.57;64.30;99214.28;5049934;28;20166;-82
2021/11/06 08:41:58;;;;;;;23.85;10.55;;;;;;;9.66;64.70;99212.44;5051400;28;20053;-85
2021/11/06 08:44:25;;;;;;;28.52;12.20;;;;;;;9.59;63.94;99215.59;5047342;28;20048;-74
2021/11/06 08:46:54;;;;;;;54.80;30.15;;;;;;;9.67;64.28;99218.69;5038261;28;20041;-77
2021/11/06 08:49:23;;;;;;;26.17;10.32;;;;;;;9.61;64.66;99207.91;5041316;28;20085;-75
2021/11/06 08:51:57;;;;;;;20.60;8.80;;;;;;;9.66;64.03;99209.69;5052029;28;20109;-86
2021/11/06 08:54:25;;;;;;;15.25;8.18;;;;;;;9.60;64.31;99203.56;5033836;28;20041;-81
2021/11/06 08:56:52;;;;;;;18.98;9.65;;;;;;;9.56;64.33;99191.63;5032279;28;20033;-77
2021/11/06 08:59:20;;;;;;;24.35;9.88;;;;;;;9.74;63.93;99189.88;5032493;28;20095;-85
2021/11/06 09:01:53;;;;;;;31.35;11.43;;;;;;;9.74;63.46;99189.06;5031332;28;20040;-84
2021/11/06 09:04:20;;;;;;;41.00;14.70;;;;;;;9.78;63.67;99184.59;5032342;28;20044;-76
2021/11/06 09:06:47;;;;;;;46.58;13.15;;;;;;;9.93;63.91;99194.31;5032068;28;20042;-81
2021/11/06 09:09:14;;;;;;;24.23;11.45;;;;;;;9.78;63.14;99190.84;5047909;28;20556;-74
2021/11/06 09:11:41;;;;;;;;;;;;;;;9.65;63.61;99192.53;5049319;28;20426;-81
2021/11/06 09:14:09;;;;;;;31.08;11.88;;;;;;;9.68;64.34;99182.91;5032376;28;20015;-83
2021/11/06 09:16:36;;;;;;;18.38;7.75;;;;;;;9.59;63.71;99193.75;5031694;28;20055;-79
2021/11/06 09:19:03;;;;;;;20.83;9.07;;;;;;;9.64;63.78;99173.75;5046375;28;20042;-75
2021/11/06 09:21:31;;;;;;;20.63;9.73;;;;;;;9.47;63.64;99154.47;5050887;28;20135;-87
2021/11/06 09:24:03;;;;;;;23.67;11.63;;;;;;;9.91;63.23;99172.78;5032863;28;20178;-83
2021/11/06 09:26:36;;;;;;;19.95;11.32;;;;;;;9.88;62.74;99171.50;5050962;28;20056;-74
2021/11/06 09:29:06;;;;;;;29.73;14.10;;;;;;;9.89;64.12;99159.44;5050977;28;20044;-89
2021/11/06 09:31:33;;;;;;;38.60;15.90;;;;;;;10.03;63.03;99159.38;5051744;28;20033;-80
2021/11/06 09:34:02;;;;;;;27.33;12.82;;;;;;;10.20;62.11;99166.03;5052650;28;20444;-91
2021/11/06 09:36:28;;;;;;;44.80;20.15;;;;;;;10.19;62.10;99150.75;5054102;28;20462;-91
2021/11/06 09:38:55;;;;;;;30.90;14.98;;;;;;;10.15;62.14;99138.84;5051180;28;20123;-90
2021/11/06 09:41:21;;;;;;;21.70;11.45;;;;;;;10.12;62.10;99145.75;5053805;28;20041;-89
2021/11/06 09:43:48;;;;;;;21.27;9.57;;;;;;;10.14;61.90;99145.44;5053808;28;20044;-81
2021/11/06 09:46:16;;;;;;;19.42;8.95;;;;;;;10.16;61.88;99144.00;5052718;28;20045;-90
2021/11/06 09:48:46;;;;;;;16.52;7.68;;;;;;;10.23;62.13;99125.25;5052174;28;20421;-88
2021/11/06 09:51:15;;;;;;;16.80;8.15;;;;;;;10.35;61.71;99127.41;5052329;28;20055;-90
2021/11/06 09:53:42;;;;;;;28.77;11.20;;;;;;;10.35;61.24;99117.28;5051319;28;20087;-91
2021/11/06 09:56:10;;;;;;;25.73;9.82;;;;;;;10.47;61.42;99121.34;5046970;28;20045;-87
2021/11/06 09:58:37;;;;;;;31.25;11.88;;;;;;;10.54;60.53;99117.03;5048200;28;20098;-84
2021/11/06 10:01:05;;;;;;;31.58;13.55;;;;;;;10.53;60.08;99133.75;5049215;28;20043;-86
2021/11/06 10:03:31;;;;;;;37.80;11.50;;;;;;;10.42;60.40;99130.47;5032285;28;20057;-85
2021/11/06 10:06:03;;;;;;;27.33;11.05;;;;;;;10.51;60.53;99119.59;5032186;28;20545;-92
2021/11/06 10:08:35;;;;;;;22.58;10.25;;;;;;;10.53;60.36;99134.56;5048291;28;20123;-90
2021/11/06 10:11:11;;;;;;;24.45;10.00;;;;;;;10.49;60.00;99130.00;5051199;28;20056;-92
2021/11/06 10:14:08;;;;;;;15.00;7.93;;;;;;;10.63;60.53;99118.97;5050544;28;20514;-90
2021/11/06 10:16:56;;;;;;;23.40;8.10;;;;;;;10.54;59.77;99119.75;5033806;28;20047;-90
2021/11/06 10:19:26;;;;;;;23.17;10.05;;;;;;;10.52;60.00;99126.66;5038869;28;20044;-92
2021/11/06 10:22:06;;;;;;;21.83;8.20;;;;;;;10.51;60.07;99125.06;5050527;28;20063;-82
2021/11/06 10:24:44;;;;;;;11.60;5.88;;;;;;;10.43;59.87;99112.97;5049796;28;20076;-81
2021/11/06 10:27:19;;;;;;;;;;;;;;;10.49;60.16;99124.53;5049813;28;20056;-78
2021/11/06 10:30:04;;;;;;;19.15;6.82;;;;;;;10.48;59.70;99112.81;5048168;28;20278;-87
2021/11/06 10:32:33;;;;;;;53.67;20.25;;;;;;;10.54;59.07;99118.94;5048956;28;20067;-85
2021/11/06 10:35:16;;;;;;;32.40;15.88;;;;;;;10.64;58.86;99131.53;5050890;28;20036;-82
2021/11/06 10:37:44;;;;;;;31.80;15.55;;;;;;;10.67;58.38;99114.47;5048572;28;20036;-83
2021/11/06 10:40:11;;;;;;;29.15;11.38;;;;;;;10.71;58.06;99119.00;5049673;28;20078;-82
2021/11/06 10:42:52;;;;;;;37.88;11.60;;;;;;;10.70;58.21;99120.13;5030558;28;20040;-76
2021/11/06 10:45:21;;;;;;;26.92;10.13;;;;;;;10.73;58.68;99107.75;5031111;28;20148;-80
2021/11/06 10:48:03;;;;;;;21.95;9.10;;;;;;;10.64;58.67;99115.91;5031213;28;20048;-86
2021/11/06 10:50:55;;;;;;;18.25;7.35;;;;;;;10.75;58.84;99119.16;5040546;28;20144;-78
2021/11/06 10:53:34;;;;;;;21.25;6.40;;;;;;;10.87;58.27;99102.13;5038340;28;20109;-82
2021/11/06 10:56:24;;;;;;;8.65;4.70;;;;;;;10.87;58.21;99108.41;5050824;28;20047;-82
2021/11/06 10:58:52;;;;;;;15.70;6.35;;;;;;;10.78;58.04;99104.84;5051091;28;20041;-87
2021/11/06 11:01:22;;;;;;;15.30;5.70;;;;;;;10.71;57.84;99113.53;5051470;28;20045;-83
2021/11/06 11:03:49;;;;;;;9.95;4.45;;;;;;;10.74;57.75;99112.88;5050135;28;20041;-87
2021/11/06 11:06:18;;;;;;;13.70;6.85;;;;;;;10.78;57.19;99104.84;5049020;28;20445;-84
2021/11/06 11:08:52;;;;;;;14.15;5.20;;;;;;;10.51;57.54;99112.19;5048787;28;20033;-86
2021/11/06 11:11:21;;;;;;;24.15;6.13;;;;;;;10.36;58.04;99098.94;5032752;28;20041;-83
2021/11/06 11:13:57;;;;;;;12.27;6.15;;;;;;;10.25;58.02;99097.59;5030541;28;20088;-76
2021/11/06 11:16:24;;;;;;;7.82;4.70;;;;;;;10.25;58.38;99108.53;5044542;28;20033;-82
2021/11/06 11:18:53;;;;;;;7.70;4.10;;;;;;;10.21;58.38;99113.03;5030605;28;20037;-81
2021/11/06 11:21:25;;;;;;;13.57;5.60;;;;;;;10.27;58.30;99125.47;5037350;28;20045;-79
2021/11/06 11:23:54;;;;;;;16.92;5.80;;;;;;;10.28;58.72;99110.66;5030215;28;20041;-83
2021/11/06 11:26:25;;;;;;;18.23;5.78;;;;;;;10.33;58.59;99110.50;5030766;28;20041;-81
2021/11/06 11:28:54;;;;;;;23.23;7.07;;;;;;;10.34;58.26;99101.22;5030224;28;20041;-86
2021/11/06 11:31:22;;;;;;;14.90;5.35;;;;;;;10.26;57.71;99078.19;5030295;28;20570;-87